createdAt,value
2023-08-07T00:00:36.557Z,91.54
2023-08-07T00:03:41.785Z,93.12
2023-08-07T00:06:44.084Z,93.81
2023-08-07T00:09:47.564Z,94.68
2023-08-07T00:12:51.602Z,96.35
2023-08-07T00:16:04.255Z,96.38
2023-08-07T00:19:10.379Z,97.70
2023-08-07T00:22:14.988Z,98.57
2023-08-07T00:25:19.235Z,98.47
2023-08-07T00:28:23.125Z,99.44
2023-08-07T00:31:29.095Z,99.76
2023-08-07T00:34:42.318Z,99.84
2023-08-07T00:37:45.584Z,100.00
2023-08-07T00:40:56.528Z,100.00
2023-08-07T00:44:00.584Z,100.00
2023-08-07T00:47:06.822Z,100.00
2023-08-07T00:50:14.353Z,100.00
2023-08-07T00:53:19.748Z,100.00
2023-08-07T00:56:24.344Z,100.00
2023-08-07T00:59:28.988Z,100.00
2023-08-07T01:02:33.385Z,100.00
2023-08-07T01:05:38.455Z,100.00
2023-08-07T01:08:42.745Z,100.00
2023-08-07T01:12:10.425Z,100.00
2023-08-07T01:15:19.967Z,100.00
2023-08-07T01:18:23.544Z,100.00
2023-08-07T01:21:27.383Z,100.00
2023-08-07T01:24:32.553Z,100.00
2023-08-07T01:28:02.756Z,100.00
2023-08-07T01:31:14.901Z,100.00
2023-08-07T01:34:29.169Z,100.00
2023-08-07T01:37:33.961Z,100.00
2023-08-07T01:40:51.933Z,100.00
2023-08-07T01:44:04.712Z,100.00
2023-08-07T01:47:10.917Z,100.00
2023-08-07T01:50:16.193Z,100.00
2023-08-07T01:53:21.808Z,100.00
2023-08-07T01:56:27.618Z,100.00
2023-08-07T01:59:33.646Z,100.00
2023-08-07T02:02:46.821Z,100.00
2023-08-07T02:05:51.893Z,100.00
2023-08-07T02:09:00.117Z,100.00
2023-08-07T02:12:05.729Z,100.00
2023-08-07T02:15:09.963Z,100.00
2023-08-07T02:18:15.453Z,99.72
2023-08-07T02:21:26.520Z,98.91
2023-08-07T02:24:32.367Z,98.27
2023-08-07T02:27:44.160Z,98.98
2023-08-07T02:30:58.137Z,98.21
2023-08-07T02:34:12.864Z,98.04
2023-08-07T02:37:15.747Z,98.44
2023-08-07T02:40:29.422Z,96.87
2023-08-07T02:43:35.091Z,96.61
2023-08-07T02:46:37.307Z,96.99
2023-08-07T02:49:48.528Z,96.65
2023-08-07T02:52:52.090Z,96.43
2023-08-07T02:55:56.515Z,96.97
2023-08-07T03:02:26.030Z,96.28
2023-08-07T03:05:33.063Z,95.96
2023-08-07T03:08:44.330Z,95.61
2023-08-07T03:11:50.469Z,95.23
2023-08-07T03:14:57.236Z,95.57
2023-08-07T03:18:02.121Z,95.96
2023-08-07T03:24:27.254Z,94.80
2023-08-07T03:27:33.194Z,94.26
2023-08-07T03:30:38.452Z,93.35
2023-08-07T03:33:55.753Z,93.30
2023-08-07T03:37:08.271Z,91.88
2023-08-07T03:40:12.617Z,92.19
2023-08-07T03:43:18.370Z,91.22
2023-08-07T03:46:31.448Z,90.55
2023-08-07T03:49:45.734Z,90.65
2023-08-07T03:52:52.406Z,90.14
2023-08-07T03:55:57.319Z,88.44
2023-08-07T03:59:03.416Z,87.88
2023-08-07T04:02:18.423Z,88.66
2023-08-07T04:05:23.317Z,87.46
2023-08-07T04:08:27.279Z,87.42
2023-08-07T04:11:31.280Z,87.28
2023-08-07T04:14:35.842Z,87.51
2023-08-07T04:17:46.695Z,86.98
2023-08-07T04:20:58.313Z,86.43
2023-08-07T04:24:10.754Z,86.86
2023-08-07T04:27:23.834Z,87.15
2023-08-07T04:30:30.793Z,86.68
2023-08-07T04:33:35.936Z,86.39
2023-08-07T04:36:39.710Z,86.36
2023-08-07T04:39:44.922Z,86.76
2023-08-07T04:43:02.500Z,86.16
2023-08-07T04:46:07.968Z,85.35
2023-08-07T04:49:24.148Z,85.82
2023-08-07T04:52:28.256Z,85.37
2023-08-07T04:55:35.511Z,85.09
2023-08-07T04:58:42.467Z,85.33
2023-08-07T05:01:44.544Z,85.11
2023-08-07T05:04:52.710Z,85.04
2023-08-07T05:07:58.212Z,85.17
2023-08-07T05:11:03.341Z,85.08
2023-08-07T05:14:05.606Z,84.64
2023-08-07T05:17:09.484Z,84.10
2023-08-07T05:20:13.279Z,83.70
2023-08-07T05:23:17.422Z,84.06
2023-08-07T05:26:19.930Z,84.07
2023-08-07T05:29:23.433Z,84.08
2023-08-07T05:32:25.421Z,84.52
2023-08-07T05:35:29.385Z,84.79
2023-08-07T05:38:33.731Z,84.82
2023-08-07T05:41:43.130Z,84.26
2023-08-07T05:44:46.061Z,84.39
2023-08-07T05:47:50.181Z,84.19
2023-08-07T05:50:54.385Z,83.81
2023-08-07T05:53:58.407Z,83.70
2023-08-07T05:57:03.176Z,84.26
2023-08-07T06:00:08.992Z,83.71
2023-08-07T06:06:45.176Z,83.24
2023-08-07T06:09:52.445Z,82.66
2023-08-07T06:12:56.847Z,82.90
2023-08-07T06:16:08.563Z,83.42
2023-08-07T06:22:29.576Z,82.00
2023-08-07T06:25:43.613Z,81.71
2023-08-07T06:28:48.276Z,81.23
2023-08-07T06:31:54.012Z,81.73
2023-08-07T06:34:58.416Z,81.10
2023-08-07T06:38:00.425Z,80.59
2023-08-07T06:41:04.121Z,80.55
2023-08-07T06:44:06.204Z,80.46
2023-08-07T06:47:11.018Z,80.17
2023-08-07T06:50:14.742Z,78.79
2023-08-07T06:53:20.743Z,79.40
2023-08-07T06:56:26.675Z,78.93
2023-08-07T06:59:31.108Z,78.12
2023-08-07T07:02:34.152Z,78.77
2023-08-07T07:05:39.135Z,77.04
2023-08-07T07:08:42.784Z,77.71
2023-08-07T07:11:48.279Z,75.56
2023-08-07T07:14:54.415Z,74.55
2023-08-07T07:17:59.823Z,74.92
2023-08-07T07:21:27.586Z,74.98
2023-08-07T07:24:32.578Z,74.36
2023-08-07T07:27:38.359Z,74.75
2023-08-07T07:30:43.655Z,74.29
2023-08-07T07:33:53.597Z,73.80
2023-08-07T07:36:58.494Z,73.83
2023-08-07T07:40:04.450Z,72.68
2023-08-07T07:43:06.535Z,73.10
2023-08-07T07:46:09.690Z,73.35
2023-08-07T07:49:14.200Z,73.25
2023-08-07T07:52:16.663Z,72.20
2023-08-07T07:55:21.879Z,72.44
2023-08-07T07:58:33.912Z,72.67
2023-08-07T08:01:40.059Z,73.02
2023-08-07T08:04:44.706Z,73.37
2023-08-07T08:07:47.051Z,72.46
2023-08-07T08:11:03.517Z,72.19
2023-08-07T08:14:07.558Z,72.43
2023-08-07T08:17:13.019Z,72.49
2023-08-07T08:20:19.309Z,72.41
2023-08-07T08:23:25.331Z,72.46
2023-08-07T08:26:27.529Z,73.57
2023-08-07T08:29:32.798Z,73.06
2023-08-07T08:32:37.021Z,71.37
2023-08-07T08:35:46.509Z,71.03
2023-08-07T08:38:53.006Z,70.50
2023-08-07T08:41:56.633Z,71.81
2023-08-07T08:45:02.749Z,72.07
2023-08-07T08:48:28.392Z,71.14
2023-08-07T08:51:41.154Z,72.89
2023-08-07T08:54:46.585Z,71.64
2023-08-07T08:57:52.435Z,69.80
2023-08-07T09:00:55.223Z,69.56
2023-08-07T09:03:59.803Z,68.82
2023-08-07T09:07:08.714Z,69.40
2023-08-07T09:10:28.050Z,68.44
2023-08-07T09:13:40.623Z,68.00
2023-08-07T09:16:48.013Z,68.49
2023-08-07T09:19:53.653Z,66.91
2023-08-07T09:22:57.507Z,67.40
2023-08-07T09:29:31.749Z,67.92
2023-08-07T09:32:37.121Z,65.08
2023-08-07T09:35:41.052Z,65.37
2023-08-07T09:38:47.151Z,64.79
2023-08-07T09:41:59.848Z,64.77
2023-08-07T09:45:11.365Z,65.41
2023-08-07T09:48:17.396Z,63.92
2023-08-07T09:51:21.687Z,63.49
2023-08-07T09:54:26.846Z,65.96
2023-08-07T09:57:41.087Z,65.87
2023-08-07T10:00:52.817Z,66.83
2023-08-07T10:03:58.728Z,65.30
2023-08-07T10:07:25.849Z,63.02
2023-08-07T10:10:37.322Z,64.05
2023-08-07T10:13:42.696Z,62.61
2023-08-07T10:16:47.567Z,60.95
2023-08-07T10:19:52.829Z,62.14
2023-08-07T10:23:03.313Z,57.76
2023-08-07T10:26:08.905Z,59.72
2023-08-07T10:29:16.162Z,58.08
2023-08-07T10:32:31.309Z,56.08
2023-08-07T10:35:34.907Z,56.55
2023-08-07T10:38:37.546Z,55.98
2023-08-07T10:41:50.880Z,56.13
2023-08-07T10:44:54.413Z,56.49
2023-08-07T10:51:36.931Z,57.12
2023-08-07T10:54:59.586Z,57.22
2023-08-07T10:58:02.158Z,56.64
2023-08-07T11:01:41.341Z,56.91
2023-08-07T11:04:44.227Z,56.50
2023-08-07T11:07:47.185Z,55.74
2023-08-07T11:10:49.266Z,55.85
2023-08-07T11:13:52.121Z,54.97
2023-08-07T11:16:56.538Z,54.92
2023-08-07T11:20:00.946Z,55.03
2023-08-07T11:23:07.171Z,56.16
2023-08-07T11:26:13.274Z,55.99
2023-08-07T11:29:23.765Z,55.47
2023-08-07T11:32:28.113Z,56.27
2023-08-07T11:35:42.038Z,56.91
2023-08-07T11:38:45.873Z,56.96
2023-08-07T11:41:55.490Z,56.13
2023-08-07T11:44:59.832Z,55.80
2023-08-07T11:48:06.201Z,55.00
2023-08-07T11:51:11.583Z,54.38
2023-08-07T11:54:17.935Z,54.85
2023-08-07T11:57:22.573Z,54.93
2023-08-07T12:00:31.286Z,51.05
2023-08-07T12:03:43.906Z,49.38
2023-08-07T12:06:58.595Z,48.81
2023-08-07T12:10:08.007Z,48.08
2023-08-07T12:13:14.043Z,47.05
2023-08-07T12:16:18.573Z,47.25
2023-08-07T12:19:23.870Z,46.46
2023-08-07T12:22:29.663Z,47.74
2023-08-07T12:25:42.083Z,47.47
2023-08-07T12:28:47.954Z,45.85
2023-08-07T12:31:52.214Z,46.49
2023-08-07T12:38:06.137Z,46.36
2023-08-07T12:41:44.757Z,46.94
2023-08-07T12:44:32.581Z,47.69
2023-08-07T12:47:34.685Z,48.32
2023-08-07T12:50:38.968Z,47.43
2023-08-07T12:53:51.254Z,47.51
2023-08-07T12:56:57.044Z,46.82
2023-08-07T12:59:59.028Z,46.93
2023-08-07T13:03:01.145Z,45.64
2023-08-07T13:09:22.828Z,45.51
2023-08-07T13:12:25.883Z,45.43
2023-08-07T13:15:31.034Z,45.09
2023-08-07T13:18:36.393Z,46.10
2023-08-07T13:21:41.398Z,45.65
2023-08-07T13:24:52.289Z,44.85
2023-08-07T13:27:59.549Z,44.88
2023-08-07T13:31:05.617Z,45.76
2023-08-07T13:34:11.661Z,45.57
2023-08-07T13:37:16.856Z,44.85
2023-08-07T13:40:22.122Z,45.10
2023-08-07T13:43:23.741Z,45.70
2023-08-07T13:46:28.280Z,46.62
2023-08-07T13:49:31.515Z,46.98
2023-08-07T13:52:37.977Z,48.32
2023-08-07T13:55:41.909Z,47.58
2023-08-07T13:58:46.030Z,47.60
2023-08-07T14:01:54.760Z,47.24
2023-08-07T14:04:58.514Z,47.82
2023-08-07T14:08:03.544Z,48.00
2023-08-07T14:11:09.181Z,48.16
2023-08-07T14:14:14.703Z,48.93
2023-08-07T14:20:41.487Z,49.67
2023-08-07T14:23:53.635Z,50.11
2023-08-07T14:26:55.956Z,49.85
2023-08-07T14:30:01.521Z,49.70
2023-08-07T14:33:04.642Z,49.66
2023-08-07T14:36:10.057Z,50.08
2023-08-07T14:42:31.577Z,50.37
2023-08-07T14:45:44.284Z,50.51
2023-08-07T14:48:47.988Z,50.73
2023-08-07T14:51:53.443Z,50.87
2023-08-07T14:54:58.932Z,51.26
2023-08-07T14:58:04.715Z,51.72
2023-08-07T15:01:10.814Z,53.02
2023-08-07T15:04:15.178Z,53.98
2023-08-07T15:07:18.259Z,54.24
2023-08-07T15:10:24.917Z,55.00
2023-08-07T15:13:31.244Z,55.55
2023-08-07T15:16:42.137Z,55.01
2023-08-07T15:19:46.901Z,55.82
2023-08-07T15:22:52.834Z,55.84
2023-08-07T15:25:54.894Z,55.49
2023-08-07T15:28:57.006Z,55.88
2023-08-07T15:31:59.765Z,56.29
2023-08-07T15:35:01.808Z,57.19
2023-08-07T15:38:04.464Z,57.33
2023-08-07T15:41:08.833Z,56.90
2023-08-07T15:47:27.913Z,57.50
2023-08-07T15:50:32.489Z,57.69
2023-08-07T15:53:35.042Z,58.33
2023-08-07T15:56:38.545Z,57.68
2023-08-07T15:59:44.165Z,57.15
2023-08-07T16:02:50.837Z,57.32
2023-08-07T16:05:56.931Z,58.30
2023-08-07T16:08:59.038Z,58.29
2023-08-07T16:12:05.100Z,57.92
2023-08-07T16:15:12.060Z,57.39
2023-08-07T16:18:16.671Z,58.46
2023-08-07T16:21:21.068Z,58.90
2023-08-07T16:24:25.725Z,59.10
2023-08-07T16:27:36.897Z,59.76
2023-08-07T16:30:41.462Z,59.44
2023-08-07T16:33:47.522Z,59.76
2023-08-07T16:36:52.889Z,60.33
2023-08-07T16:39:58.151Z,60.37
2023-08-07T16:43:09.434Z,61.12
2023-08-07T16:46:13.069Z,60.23
2023-08-07T16:49:19.902Z,60.89
2023-08-07T16:52:24.491Z,60.87
2023-08-07T16:55:29.895Z,61.41
2023-08-07T16:58:33.752Z,61.52
2023-08-07T17:01:35.966Z,61.42
2023-08-07T17:04:39.018Z,61.81
2023-08-07T17:07:45.087Z,62.22
2023-08-07T17:10:50.319Z,61.50
2023-08-07T17:13:54.915Z,61.90
2023-08-07T17:17:06.375Z,62.38
2023-08-07T17:20:12.735Z,62.52
2023-08-07T17:23:18.700Z,63.72
2023-08-07T17:26:21.144Z,64.13
2023-08-07T17:29:24.971Z,64.54
2023-08-07T17:32:27.106Z,64.92
2023-08-07T17:35:41.285Z,65.43
2023-08-07T17:38:46.522Z,65.58
2023-08-07T17:41:49.274Z,66.10
2023-08-07T17:44:54.110Z,66.43
2023-08-07T17:47:59.444Z,67.49
2023-08-07T17:51:02.963Z,67.09
2023-08-07T17:54:07.682Z,67.33
2023-08-07T17:57:11.078Z,67.83
2023-08-07T18:00:18.829Z,68.71
2023-08-07T18:03:22.763Z,69.15
2023-08-07T18:06:26.174Z,68.75
2023-08-07T18:09:30.665Z,69.08
2023-08-07T18:12:33.306Z,68.36
2023-08-07T18:15:38.261Z,68.49
2023-08-07T18:18:42.111Z,68.82
2023-08-07T18:21:46.682Z,68.28
2023-08-07T18:24:57.503Z,67.48
2023-08-07T18:28:02.299Z,67.74
2023-08-07T18:31:09.001Z,67.61
2023-08-07T18:34:13.868Z,67.76
2023-08-07T18:37:19.615Z,67.80
2023-08-07T18:40:23.248Z,68.38
2023-08-07T18:43:27.039Z,68.69
2023-08-07T18:46:30.312Z,68.79
2023-08-07T18:49:33.242Z,69.61
2023-08-07T18:52:37.964Z,69.39
2023-08-07T18:55:42.667Z,69.86
2023-08-07T18:58:47.636Z,71.41
2023-08-07T19:01:52.862Z,72.33
2023-08-07T19:04:58.518Z,72.69
2023-08-07T19:08:12.091Z,73.31
2023-08-07T19:11:18.869Z,73.69
2023-08-07T19:14:23.588Z,74.35
2023-08-07T19:17:28.351Z,74.35
2023-08-07T19:20:32.560Z,75.35
2023-08-07T19:23:36.201Z,75.08
2023-08-07T19:26:38.577Z,75.65
2023-08-07T19:29:43.542Z,75.60
2023-08-07T19:32:54.515Z,75.87
2023-08-07T19:35:57.744Z,75.98
2023-08-07T19:39:04.684Z,76.05
2023-08-07T19:42:09.839Z,76.52
2023-08-07T19:45:12.394Z,76.38
2023-08-07T19:48:14.523Z,76.19
2023-08-07T19:51:17.884Z,76.72
2023-08-07T19:54:19.950Z,77.02
2023-08-07T19:57:22.015Z,76.76
2023-08-07T20:00:24.284Z,77.14
2023-08-07T20:03:29.789Z,77.34
2023-08-07T20:06:35.396Z,77.59
2023-08-07T20:09:51.432Z,77.98
2023-08-07T20:12:56.148Z,77.81
2023-08-07T20:16:08.703Z,78.66
2023-08-07T20:19:12.264Z,78.24
2023-08-07T20:22:42.978Z,78.95
2023-08-07T20:25:46.255Z,79.40
2023-08-07T20:28:52.270Z,79.54
2023-08-07T20:31:57.640Z,79.80
2023-08-07T20:35:08.593Z,79.71
2023-08-07T20:38:12.206Z,79.83
2023-08-07T20:41:16.001Z,79.83
2023-08-07T20:44:20.252Z,79.90
2023-08-07T20:47:31.498Z,79.84
2023-08-07T20:50:37.463Z,80.16
2023-08-07T20:53:42.462Z,80.12
2023-08-07T20:56:44.359Z,80.67
2023-08-07T20:59:47.851Z,80.28
2023-08-07T21:02:50.843Z,80.23
2023-08-07T21:06:03.557Z,80.54
2023-08-07T21:09:09.579Z,81.01
2023-08-07T21:12:15.276Z,81.18
2023-08-07T21:15:24.873Z,81.27
2023-08-07T21:18:30.515Z,81.61
2023-08-07T21:21:34.414Z,82.03
2023-08-07T21:24:40.166Z,82.71
2023-08-07T21:27:44.668Z,82.97
2023-08-07T21:30:48.040Z,83.11
2023-08-07T21:33:52.481Z,83.53
2023-08-07T21:37:07.267Z,83.84
2023-08-07T21:40:11.257Z,84.39
2023-08-07T21:46:32.281Z,84.97
2023-08-07T21:49:37.949Z,84.94
2023-08-07T21:52:40.031Z,85.46
2023-08-07T21:55:45.379Z,85.48
2023-08-07T21:58:50.618Z,85.51
2023-08-07T22:01:54.194Z,85.80
2023-08-07T22:04:56.704Z,85.79
2023-08-07T22:08:02.756Z,86.19
2023-08-07T22:11:11.914Z,86.19
2023-08-07T22:14:26.236Z,86.74
2023-08-07T22:17:31.671Z,86.83
2023-08-07T22:20:35.345Z,87.02
2023-08-07T22:23:39.813Z,87.41
2023-08-07T22:26:47.981Z,87.70
2023-08-07T22:29:50.620Z,87.86
2023-08-07T22:33:02.440Z,87.89
2023-08-07T22:36:06.496Z,87.89
2023-08-07T22:42:37.985Z,88.41
2023-08-07T22:45:49.529Z,88.37
2023-08-07T22:48:51.706Z,88.65
2023-08-07T22:51:55.455Z,88.48
2023-08-07T22:55:00.239Z,88.71
2023-08-07T22:58:03.468Z,88.75
2023-08-07T23:01:08.452Z,88.82
2023-08-07T23:04:13.492Z,88.90
2023-08-07T23:07:20.598Z,89.08
2023-08-07T23:10:24.066Z,88.96
2023-08-07T23:13:37.611Z,89.48
2023-08-07T23:16:43.804Z,89.25
2023-08-07T23:19:58.562Z,89.60
2023-08-07T23:23:10.851Z,89.56
2023-08-07T23:26:16.232Z,89.49
2023-08-07T23:29:19.290Z,89.46
2023-08-07T23:32:31.933Z,89.01
2023-08-07T23:35:34.613Z,88.91
2023-08-07T23:38:39.966Z,88.71
2023-08-07T23:41:50.703Z,88.41
2023-08-07T23:44:57.423Z,88.57
2023-08-07T23:48:06.000Z,88.33
2023-08-07T23:51:11.588Z,88.16
2023-08-07T23:54:15.184Z,87.70
